Time;durP1;ratioP1;P1;durP2;ratioP2;P2;SDS_P1;SDS_P2;PMS_P1;PMS_P2;Temp;Humidity;BMP_temperature;BMP_pressure;BME280_temperature;BME280_humidity;BME280_pressure;Samples;Min_cycle;Max_cycle;Signal;HPM_P1;HPM_P2
2022/06/15 00:00:35;;;;;;;14.07;12.20;;;12.90;99.90;;;;;;5068681;28;20113;-63
2022/06/15 00:03:01;;;;;;;19.33;13.90;;;12.90;99.90;;;;;;5067501;28;20037;-64
2022/06/15 00:05:28;;;;;;;25.50;13.68;;;12.90;99.90;;;;;;5068013;28;20592;-64
2022/06/15 00:07:54;;;;;;;17.85;12.50;;;12.80;99.90;;;;;;5065684;28;21610;-63
2022/06/15 00:10:21;;;;;;;17.70;12.60;;;12.80;99.90;;;;;;5067656;28;20036;-63
2022/06/15 00:12:47;;;;;;;13.98;11.55;;;12.80;99.90;;;;;;5062795;28;20044;-64
2022/06/15 00:15:13;;;;;;;22.13;13.00;;;12.70;99.90;;;;;;5068723;28;20035;-64
2022/06/15 00:17:40;;;;;;;17.05;13.75;;;12.70;99.90;;;;;;5066304;28;20073;-63
2022/06/15 00:20:07;;;;;;;19.40;13.38;;;12.70;99.90;;;;;;5068146;28;20036;-63
2022/06/15 00:22:33;;;;;;;23.70;13.90;;;12.60;99.90;;;;;;5065086;28;20036;-63
2022/06/15 00:24:58;;;;;;;18.58;14.60;;;12.60;99.90;;;;;;5068197;28;20127;-63
2022/06/15 00:27:24;;;;;;;15.85;12.60;;;12.50;99.90;;;;;;5068828;28;20048;-63
2022/06/15 00:29:49;;;;;;;19.05;12.60;;;12.50;99.90;;;;;;5068204;28;20124;-64
2022/06/15 00:32:15;;;;;;;19.35;13.60;;;12.50;99.90;;;;;;5063866;28;20040;-63
2022/06/15 00:34:41;;;;;;;18.50;13.18;;;12.50;99.90;;;;;;5061329;28;20489;-64
2022/06/15 00:37:07;;;;;;;21.08;13.00;;;12.50;99.90;;;;;;5067302;28;20560;-64
2022/06/15 00:39:34;;;;;;;15.68;12.30;;;12.50;99.90;;;;;;5067528;28;20071;-63
2022/06/15 00:42:00;;;;;;;18.67;12.40;;;12.40;99.90;;;;;;5067736;28;20615;-64
2022/06/15 00:44:29;;;;;;;15.75;11.75;;;12.40;99.90;;;;;;5068271;28;20036;-63
2022/06/15 00:47:06;;;;;;;20.38;12.55;;;12.40;99.90;;;;;;5068642;28;20417;-63
2022/06/15 00:49:37;;;;;;;17.55;11.73;;;12.40;99.90;;;;;;5059473;28;20060;-64
2022/06/15 00:52:13;;;;;;;16.33;12.25;;;12.40;99.90;;;;;;5064427;28;20091;-63
2022/06/15 00:54:40;;;;;;;17.55;11.85;;;12.30;99.90;;;;;;5054913;28;20056;-63
2022/06/15 00:57:06;;;;;;;16.58;12.20;;;12.30;99.90;;;;;;5053425;28;20489;-64
2022/06/15 00:59:38;;;;;;;18.85;12.18;;;12.30;99.90;;;;;;5060115;28;20037;-64
2022/06/15 01:02:04;;;;;;;17.17;12.05;;;12.30;99.90;;;;;;5056414;28;20040;-63
2022/06/15 01:04:40;;;;;;;17.13;11.52;;;12.20;99.90;;;;;;5067927;28;20104;-63
2022/06/15 01:07:42;;;;;;;17.38;13.88;;;12.20;99.90;;;;;;5067351;28;20064;-63
2022/06/15 01:10:28;;;;;;;18.10;12.52;;;12.10;99.90;;;;;;5061222;28;20139;-63
2022/06/15 01:13:19;;;;;;;16.95;12.30;;;12.10;99.90;;;;;;5058556;28;20060;-63
2022/06/15 01:15:56;;;;;;;18.40;11.05;;;12.10;99.90;;;;;;5057793;28;20055;-63
2022/06/15 01:18:52;;;;;;;22.85;12.00;;;12.10;99.90;;;;;;5068488;28;20049;-63
2022/06/15 01:21:28;;;;;;;14.18;11.48;;;12.00;99.90;;;;;;5058337;28;20138;-64
2022/06/15 01:24:16;;;;;;;18.65;13.00;;;12.00;99.90;;;;;;5067794;28;20076;-63
2022/06/15 01:27:11;;;;;;;17.38;12.65;;;12.00;99.90;;;;;;5064403;28;20123;-63
2022/06/15 01:30:00;;;;;;;14.32;12.10;;;12.00;99.90;;;;;;5059998;28;20037;-64
2022/06/15 01:32:39;;;;;;;17.70;12.15;;;11.90;99.90;;;;;;5059502;28;20068;-63
2022/06/15 01:35:29;;;;;;;17.23;11.07;;;11.90;99.90;;;;;;5067441;28;20044;-63
2022/06/15 01:38:19;;;;;;;19.88;12.25;;;11.90;99.90;;;;;;5065297;28;20048;-63
2022/06/15 01:40:58;;;;;;;24.48;13.45;;;11.90;99.90;;;;;;5067238;28;20044;-64
2022/06/15 01:43:29;;;;;;;18.38;11.63;;;11.80;99.90;;;;;;5075871;28;20080;-64
2022/06/15 01:45:56;;;;;;;15.57;11.73;;;11.80;99.90;;;;;;5063948;28;20051;-64
2022/06/15 01:48:23;;;;;;;27.53;12.90;;;11.70;99.90;;;;;;5067739;28;20044;-64
2022/06/15 01:50:57;;;;;;;16.90;12.13;;;11.70;99.90;;;;;;5062605;28;20044;-64
2022/06/15 01:53:30;;;;;;;20.63;11.77;;;11.70;99.90;;;;;;5063378;28;20079;-64
2022/06/15 01:56:17;;;;;;;24.05;10.80;;;11.70;99.90;;;;;;5064461;28;20546;-63
2022/06/15 01:58:47;;;;;;;18.65;12.95;;;11.70;99.90;;;;;;5059254;28;20578;-64
2022/06/15 02:01:20;;;;;;;22.65;13.18;;;11.70;99.90;;;;;;5062543;28;20058;-64
2022/06/15 02:03:53;;;;;;;27.15;12.55;;;11.60;99.90;;;;;;5066859;28;20051;-64
2022/06/15 02:06:42;;;;;;;17.42;11.80;;;11.60;99.90;;;;;;5077923;28;20506;-64
2022/06/15 02:09:32;;;;;;;16.30;12.32;;;11.60;99.90;;;;;;5066140;28;20044;-64
2022/06/15 02:12:02;;;;;;;23.63;13.13;;;11.60;99.90;;;;;;5049820;28;20045;-64
2022/06/15 02:14:38;;;;;;;26.75;12.73;;;11.60;99.90;;;;;;5066306;28;20044;-64
2022/06/15 02:17:09;;;;;;;20.83;12.50;;;11.60;99.90;;;;;;5063348;28;20040;-64
2022/06/15 02:19:48;;;;;;;19.75;12.98;;;11.50;99.90;;;;;;5065938;28;20413;-64
2022/06/15 02:22:18;;;;;;;26.88;15.30;;;11.50;99.90;;;;;;5060256;28;20051;-64
2022/06/15 02:24:47;;;;;;;24.33;14.65;;;11.50;99.90;;;;;;5061083;28;20710;-64
2022/06/15 02:27:15;;;;;;;20.92;14.13;;;11.50;99.90;;;;;;5068454;28;20059;-64
2022/06/15 02:29:44;;;;;;;31.30;15.40;;;11.50;99.90;;;;;;5060726;28;20485;-64
2022/06/15 02:32:10;;;;;;;;;;;11.50;99.90;;;;;;5066647;28;20677;-64
2022/06/15 02:34:38;;;;;;;21.23;13.63;;;11.50;99.90;;;;;;5065642;28;19959;-64
2022/06/15 02:37:05;;;;;;;36.45;15.98;;;11.50;99.90;;;;;;5065053;28;20044;-64
2022/06/15 02:39:31;;;;;;;19.98;14.13;;;11.50;99.90;;;;;;5077431;28;20067;-64
2022/06/15 02:41:59;;;;;;;19.83;13.50;;;11.50;99.90;;;;;;5070927;28;20052;-64
2022/06/15 02:44:27;;;;;;;22.97;15.60;;;11.50;99.90;;;;;;5063351;28;20072;-64
2022/06/15 02:46:54;;;;;;;28.63;14.98;;;11.50;99.90;;;;;;5055926;28;20353;-64
2022/06/15 02:49:20;;;;;;;27.48;14.93;;;11.50;99.90;;;;;;5057043;28;20039;-64
2022/06/15 02:51:56;;;;;;;28.13;15.32;;;11.50;99.90;;;;;;5058159;28;20079;-64
2022/06/15 02:54:47;;;;;;;22.65;15.63;;;11.50;99.90;;;;;;5054418;28;20043;-64
2022/06/15 02:57:13;;;;;;;35.55;16.52;;;11.50;99.90;;;;;;5059058;28;20045;-64
2022/06/15 02:59:40;;;;;;;20.38;15.23;;;11.40;99.90;;;;;;5058698;28;20036;-64
2022/06/15 03:02:05;;;;;;;24.80;15.05;;;11.40;99.90;;;;;;5065038;28;20048;-64
2022/06/15 03:04:31;;;;;;;23.35;14.85;;;11.40;99.90;;;;;;5066704;28;20481;-65
2022/06/15 03:06:56;;;;;;;27.17;15.05;;;11.40;99.90;;;;;;5062470;28;20051;-65
2022/06/15 03:09:24;;;;;;;31.83;17.25;;;11.40;99.90;;;;;;5065998;28;20040;-65
2022/06/15 03:11:50;;;;;;;25.52;14.88;;;11.40;99.90;;;;;;5066173;28;20437;-65
2022/06/15 03:14:17;;;;;;;30.35;16.88;;;11.40;99.90;;;;;;5055276;28;20045;-65
2022/06/15 03:16:43;;;;;;;23.73;16.40;;;11.40;99.90;;;;;;5065897;28;20049;-66
2022/06/15 03:19:12;;;;;;;24.30;15.95;;;11.40;99.90;;;;;;5066367;28;20167;-66
2022/06/15 03:21:38;;;;;;;30.77;16.65;;;11.40;99.90;;;;;;5061895;28;20076;-65
2022/06/15 03:24:05;;;;;;;25.42;16.30;;;11.30;99.90;;;;;;5064816;28;20143;-65
2022/06/15 03:26:31;;;;;;;22.23;14.50;;;11.40;99.90;;;;;;5068437;28;20052;-66
2022/06/15 03:28:57;;;;;;;30.55;17.77;;;11.30;99.90;;;;;;5064747;28;20036;-65
2022/06/15 03:31:23;;;;;;;34.15;16.70;;;11.40;99.90;;;;;;5061294;28;20178;-65
2022/06/15 03:33:48;;;;;;;27.02;16.67;;;11.30;99.90;;;;;;5066688;28;20067;-65
2022/06/15 03:36:14;;;;;;;38.13;16.35;;;11.30;99.90;;;;;;5068542;28;20137;-66
2022/06/15 03:38:40;;;;;;;27.52;16.77;;;11.30;99.90;;;;;;5069966;28;20041;-65
2022/06/15 03:41:05;;;;;;;29.33;16.48;;;11.30;99.90;;;;;;5069429;28;20045;-65
2022/06/15 03:43:31;;;;;;;25.15;15.35;;;11.40;99.90;;;;;;5070072;28;20115;-66
2022/06/15 03:45:57;;;;;;;23.55;16.13;;;11.40;99.90;;;;;;5057057;28;20090;-65
2022/06/15 03:48:23;;;;;;;29.88;15.50;;;11.40;99.90;;;;;;5062331;28;20736;-66
2022/06/15 03:50:49;;;;;;;27.55;15.77;;;11.40;99.90;;;;;;5059038;28;20135;-66
2022/06/15 03:53:15;;;;;;;33.42;18.48;;;11.40;99.90;;;;;;5064852;28;20056;-66
2022/06/15 03:55:41;;;;;;;32.15;16.13;;;11.50;99.90;;;;;;5059815;28;20051;-66
2022/06/15 03:58:09;;;;;;;31.60;14.73;;;11.50;99.90;;;;;;5063612;28;20041;-65
2022/06/15 04:00:35;;;;;;;22.20;15.07;;;11.50;99.90;;;;;;5060132;28;20127;-66
2022/06/15 04:03:00;;;;;;;23.17;14.10;;;11.60;99.90;;;;;;5062593;28;20127;-66
2022/06/15 04:05:36;;;;;;;22.92;14.90;;;11.60;99.90;;;;;;5057730;28;20389;-66
2022/06/15 04:10:47;;;;;;;24.05;12.88;;;11.70;99.90;;;;;;5060889;28;20056;-66
2022/06/15 04:13:14;;;;;;;25.38;15.23;;;11.80;99.90;;;;;;5060174;28;20409;-65
2022/06/15 04:15:40;;;;;;;32.10;17.33;;;11.80;99.90;;;;;;5065032;28;20123;-66
2022/06/15 04:18:06;;;;;;;29.02;16.20;;;11.90;99.90;;;;;;5068910;28;20408;-67
2022/06/15 04:20:32;;;;;;;19.95;14.38;;;12.00;99.90;;;;;;5068906;28;20041;-66
2022/06/15 04:23:02;;;;;;;22.20;15.00;;;12.00;99.90;;;;;;5066442;28;20048;-66
2022/06/15 04:25:30;;;;;;;29.98;15.00;;;12.00;99.90;;;;;;5068813;28;20036;-66
2022/06/15 04:27:56;;;;;;;26.00;16.48;;;12.10;99.90;;;;;;5058296;28;20044;-66
2022/06/15 04:30:22;;;;;;;21.95;16.30;;;12.10;99.90;;;;;;5064791;28;20049;-66
2022/06/15 04:32:48;;;;;;;28.88;16.70;;;12.10;99.90;;;;;;5059633;28;20049;-66
2022/06/15 04:35:14;;;;;;;30.45;16.75;;;12.10;99.90;;;;;;5061156;28;20176;-66
2022/06/15 04:37:40;;;;;;;22.70;15.65;;;12.10;99.90;;;;;;5067886;28;20147;-66
2022/06/15 04:40:07;;;;;;;28.05;14.85;;;12.10;99.90;;;;;;5063465;28;20124;-66
2022/06/15 04:42:33;;;;;;;25.92;15.70;;;12.00;99.90;;;;;;5065838;28;20044;-66
2022/06/15 04:44:58;;;;;;;25.95;17.63;;;12.10;99.90;;;;;;5068635;28;20051;-66
2022/06/15 04:47:24;;;;;;;31.08;16.95;;;12.20;99.90;;;;;;5065996;28;20931;-66
2022/06/15 04:49:49;;;;;;;30.48;18.50;;;12.20;99.90;;;;;;5068846;28;20048;-66
2022/06/15 04:52:15;;;;;;;29.25;18.27;;;12.30;99.90;;;;;;5068872;28;20040;-66
2022/06/15 04:54:42;;;;;;;28.02;18.63;;;12.30;99.90;;;;;;5066323;28;20504;-65
2022/06/15 04:57:07;;;;;;;30.05;17.75;;;12.30;99.90;;;;;;5064257;28;20532;-66
2022/06/15 04:59:33;;;;;;;34.70;18.23;;;12.40;99.90;;;;;;5068216;28;20076;-66
2022/06/15 05:01:59;;;;;;;26.83;18.45;;;12.40;99.90;;;;;;5062203;28;20033;-66
2022/06/15 05:04:25;;;;;;;26.67;17.23;;;12.50;99.90;;;;;;5068122;28;20092;-66
2022/06/15 05:06:51;;;;;;;33.20;18.85;;;12.50;99.90;;;;;;5068978;28;20103;-65
2022/06/15 05:09:17;;;;;;;34.22;19.00;;;12.60;99.90;;;;;;5066801;28;20044;-65
2022/06/15 05:11:43;;;;;;;35.13;20.48;;;12.60;99.90;;;;;;5060372;28;20041;-66
2022/06/15 05:14:09;;;;;;;31.80;18.67;;;12.70;99.90;;;;;;5063752;28;20044;-66
2022/06/15 05:16:35;;;;;;;31.38;19.45;;;12.70;99.90;;;;;;5066481;28;20049;-66
2022/06/15 05:19:01;;;;;;;27.80;17.50;;;12.80;99.90;;;;;;5061626;28;20044;-66
2022/06/15 05:21:27;;;;;;;29.40;17.25;;;12.80;99.90;;;;;;5062446;28;20810;-65
2022/06/15 05:23:53;;;;;;;28.02;16.98;;;12.90;99.90;;;;;;5058200;28;20098;-66
2022/06/15 05:26:24;;;;;;;43.20;18.50;;;13.10;99.90;;;;;;5059455;28;20055;-66
2022/06/15 05:28:51;;;;;;;39.65;17.63;;;13.20;99.90;;;;;;5060813;28;20052;-66
2022/06/15 05:31:20;;;;;;;22.27;15.73;;;13.30;99.90;;;;;;5057030;28;20052;-66
2022/06/15 05:33:46;;;;;;;26.75;16.90;;;13.30;99.90;;;;;;5056014;28;20757;-66
2022/06/15 05:36:15;;;;;;;25.33;15.80;;;13.40;99.90;;;;;;5067134;28;20106;-66
2022/06/15 05:38:42;;;;;;;24.15;15.23;;;13.50;99.90;;;;;;5067632;28;20151;-66
2022/06/15 05:41:08;;;;;;;26.23;16.30;;;13.60;99.90;;;;;;5066915;28;20437;-66
2022/06/15 05:43:35;;;;;;;21.15;14.55;;;13.60;99.90;;;;;;5067035;28;20052;-66
2022/06/15 05:46:20;;;;;;;26.45;14.85;;;13.70;99.90;;;;;;5062689;28;20049;-66
2022/06/15 05:48:46;;;;;;;32.25;16.38;;;13.80;99.90;;;;;;5066559;28;20101;-66
2022/06/15 05:51:11;;;;;;;25.80;15.80;;;13.90;99.90;;;;;;5063754;28;20044;-66
2022/06/15 05:53:37;;;;;;;30.60;14.30;;;14.10;99.90;;;;;;5065136;28;20043;-66
2022/06/15 05:56:03;;;;;;;22.88;14.48;;;14.10;99.90;;;;;;5060322;28;20606;-66
2022/06/15 05:58:28;;;;;;;20.88;13.63;;;14.10;99.90;;;;;;5065353;28;20037;-66
2022/06/15 06:00:54;;;;;;;26.20;15.68;;;14.20;99.90;;;;;;5059651;28;20103;-65
2022/06/15 06:03:19;;;;;;;20.88;14.18;;;14.30;99.90;;;;;;5057947;28;20513;-65
2022/06/15 06:05:45;;;;;;;23.65;14.77;;;14.50;99.90;;;;;;5057631;28;20053;-66
2022/06/15 06:08:12;;;;;;;22.83;13.18;;;14.60;99.90;;;;;;5056168;28;20131;-66
2022/06/15 06:10:37;;;;;;;20.40;11.80;;;14.80;99.90;;;;;;5059870;28;20135;-66
2022/06/15 06:13:03;;;;;;;14.98;11.30;;;15.00;99.90;;;;;;5059644;28;20048;-66
2022/06/15 06:15:31;;;;;;;16.45;10.82;;;15.20;99.90;;;;;;5058151;28;20029;-66
2022/06/15 06:18:01;;;;;;;17.30;11.48;;;15.30;99.90;;;;;;5055658;28;20036;-66
2022/06/15 06:20:27;;;;;;;15.85;11.27;;;15.30;99.90;;;;;;5054704;28;20873;-66
2022/06/15 06:22:52;;;;;;;20.15;11.02;;;15.40;99.90;;;;;;5061406;28;20056;-66
2022/06/15 06:25:18;;;;;;;17.67;10.32;;;15.50;99.90;;;;;;5061775;28;20033;-66
2022/06/15 06:27:43;;;;;;;24.13;10.63;;;15.70;99.90;;;;;;5057156;28;20127;-66
2022/06/15 06:30:10;;;;;;;21.73;10.73;;;15.80;99.90;;;;;;5073108;28;20055;-66
2022/06/15 06:32:36;;;;;;;16.85;11.18;;;15.90;99.90;;;;;;5059667;28;20045;-66
2022/06/15 06:35:02;;;;;;;23.55;10.93;;;16.10;99.90;;;;;;5058678;28;20459;-66
2022/06/15 06:37:30;;;;;;;17.67;9.98;;;16.20;99.90;;;;;;5052388;28;20102;-66
2022/06/15 06:39:56;;;;;;;17.10;10.25;;;16.40;99.90;;;;;;5058658;28;20112;-66
2022/06/15 06:42:22;;;;;;;17.83;10.15;;;16.60;99.90;;;;;;5066490;28;20044;-66
2022/06/15 06:44:47;;;;;;;20.20;10.60;;;16.70;99.90;;;;;;5064970;28;20048;-66
2022/06/15 06:47:13;;;;;;;23.45;11.95;;;16.90;99.90;;;;;;5063618;28;20450;-66
2022/06/15 06:49:39;;;;;;;22.13;9.73;;;17.10;99.90;;;;;;5071040;28;20041;-66
2022/06/15 06:52:06;;;;;;;19.05;10.55;;;17.30;99.90;;;;;;5069693;28;20099;-66
2022/06/15 06:54:32;;;;;;;11.83;9.33;;;17.60;99.90;;;;;;5067108;28;20098;-66
2022/06/15 06:56:57;;;;;;;19.95;9.77;;;17.80;99.90;;;;;;5070230;28;20517;-66
2022/06/15 06:59:23;;;;;;;17.42;10.32;;;18.00;99.90;;;;;;5070771;28;20037;-67
2022/06/15 07:01:49;;;;;;;13.63;9.32;;;18.20;99.90;;;;;;5072368;28;20412;-68
2022/06/15 07:04:17;;;;;;;26.77;10.57;;;18.40;99.90;;;;;;5076906;28;20148;-69
2022/06/15 07:06:43;;;;;;;18.02;9.15;;;18.70;99.90;;;;;;5075096;28;20060;-70
2022/06/15 07:09:11;;;;;;;17.75;9.32;;;18.90;99.90;;;;;;5069002;28;20306;-69
2022/06/15 07:11:37;;;;;;;13.02;9.00;;;19.20;99.90;;;;;;5077953;28;20048;-67
2022/06/15 07:14:05;;;;;;;25.25;8.50;;;19.50;99.90;;;;;;5072754;28;20059;-66
2022/06/15 07:16:30;;;;;;;15.18;8.70;;;19.40;99.90;;;;;;5075581;28;20044;-66
2022/06/15 07:18:56;;;;;;;10.75;9.25;;;19.60;99.90;;;;;;5072709;28;20032;-65
2022/06/15 07:21:26;;;;;;;13.07;8.45;;;19.80;99.90;;;;;;5068130;28;20041;-66
2022/06/15 07:23:55;;;;;;;21.13;8.52;;;20.00;99.90;;;;;;5065641;28;20089;-65
2022/06/15 07:26:34;;;;;;;16.45;8.73;;;20.30;99.90;;;;;;5073439;28;20067;-65
2022/06/15 07:29:00;;;;;;;9.55;6.93;;;20.30;99.90;;;;;;5066508;28;20115;-65
2022/06/15 07:31:32;;;;;;;19.27;9.10;;;20.30;99.90;;;;;;5068254;28;20162;-65
2022/06/15 07:33:58;;;;;;;18.55;8.32;;;20.30;99.90;;;;;;5064682;28;20048;-65
2022/06/15 07:36:25;;;;;;;16.15;8.38;;;20.50;99.90;;;;;;5060258;28;20045;-65
2022/06/15 07:38:56;;;;;;;20.23;8.48;;;20.60;99.90;;;;;;5069485;28;20051;-65
2022/06/15 07:41:24;;;;;;;16.33;7.93;;;20.60;99.90;;;;;;5061372;28;20033;-65
2022/06/15 07:43:51;;;;;;;11.63;7.63;;;20.70;99.90;;;;;;5067942;28;20047;-65
2022/06/15 07:46:17;;;;;;;20.00;9.35;;;21.00;99.90;;;;;;5067592;28;20517;-65
2022/06/15 07:51:43;;;;;;;9.65;8.48;;;21.20;99.90;;;;;;5070056;28;20041;-64
2022/06/15 07:54:12;;;;;;;11.02;7.97;;;21.20;99.90;;;;;;5062129;28;20067;-64
2022/06/15 07:56:40;;;;;;;19.50;9.27;;;21.20;99.90;;;;;;5070105;28;20041;-64
2022/06/15 07:59:07;;;;;;;11.27;7.75;;;21.30;99.90;;;;;;5071924;28;20125;-64
2022/06/15 08:01:34;;;;;;;11.93;8.00;;;21.40;99.90;;;;;;5068219;28;20437;-64
2022/06/15 08:04:01;;;;;;;11.90;7.70;;;21.60;99.90;;;;;;5057517;28;20060;-64
2022/06/15 08:06:28;;;;;;;9.48;7.75;;;21.70;99.90;;;;;;5066758;28;20448;-64
2022/06/15 08:08:53;;;;;;;18.08;7.82;;;21.70;99.90;;;;;;5067663;28;20421;-64
2022/06/15 08:11:19;;;;;;;10.10;7.70;;;21.80;99.90;;;;;;5067593;28;20045;-64
2022/06/15 08:13:45;;;;;;;9.75;7.25;;;21.90;99.90;;;;;;5057219;28;20044;-64
2022/06/15 08:16:13;;;;;;;17.52;7.82;;;21.90;99.90;;;;;;5067728;28;20460;-64
2022/06/15 08:18:43;;;;;;;11.98;7.35;;;21.90;99.90;;;;;;5069572;28;20044;-64
2022/06/15 08:21:18;;;;;;;12.32;7.15;;;22.20;99.90;;;;;;5068675;28;20124;-64
2022/06/15 08:23:46;;;;;;;17.15;8.20;;;22.30;99.90;;;;;;5070881;28;20052;-64
2022/06/15 08:26:16;;;;;;;14.55;7.53;;;22.10;98.00;;;;;;5068656;28;20044;-64
2022/06/15 08:28:46;;;;;;;9.35;7.47;;;22.10;96.90;;;;;;5070694;28;20044;-64
2022/06/15 08:31:13;;;;;;;13.23;7.13;;;22.20;94.10;;;;;;5060183;28;20056;-65
2022/06/15 08:33:39;;;;;;;14.45;7.90;;;22.10;99.30;;;;;;5050922;28;20041;-64
2022/06/15 08:36:07;;;;;;;12.30;6.60;;;21.90;97.60;;;;;;5067109;28;20053;-64
2022/06/15 08:38:32;;;;;;;;;;;22.30;99.90;;;;;;5068198;28;20036;-64
2022/06/15 08:41:18;;;;;;;15.68;7.75;;;22.70;89.60;;;;;;5064072;28;19927;-64
2022/06/15 08:44:04;;;;;;;10.45;7.20;;;23.00;95.80;;;;;;5055909;28;20195;-64
2022/06/15 08:46:45;;;;;;;12.48;7.80;;;22.90;84.70;;;;;;5059401;28;20041;-64
2022/06/15 08:49:37;;;;;;;8.45;6.30;;;22.20;84.80;;;;;;5066515;28;20076;-64
2022/06/15 08:52:17;;;;;;;7.80;6.38;;;22.60;91.90;;;;;;5068289;28;20056;-64
2022/06/15 08:54:56;;;;;;;7.35;5.28;;;22.90;91.10;;;;;;5062123;28;20064;-64
2022/06/15 08:57:31;;;;;;;7.85;5.47;;;22.90;79.70;;;;;;5055056;28;20072;-64
2022/06/15 09:00:14;;;;;;;8.18;6.30;;;22.90;75.20;;;;;;5067807;28;20075;-64
2022/06/15 09:02:44;;;;;;;10.98;7.50;;;23.00;84.70;;;;;;5061111;28;20070;-64
2022/06/15 09:05:25;;;;;;;9.57;8.30;;;23.10;89.00;;;;;;5067010;28;20101;-64
2022/06/15 09:08:14;;;;;;;9.50;6.53;;;22.90;88.80;;;;;;5050537;28;20072;-64
2022/06/15 09:10:55;;;;;;;11.13;4.93;;;22.70;75.20;;;;;;5070571;28;20101;-65
2022/06/15 09:13:39;;;;;;;9.15;5.43;;;22.30;72.80;;;;;;5068171;28;20040;-64
2022/06/15 09:16:34;;;;;;;11.73;6.47;;;21.70;81.60;;;;;;5067043;28;20044;-64
2022/06/15 09:19:12;;;;;;;9.48;5.80;;;21.70;79.40;;;;;;5060974;28;20504;-64
2022/06/15 09:21:46;;;;;;;12.90;6.03;;;22.00;90.10;;;;;;5054694;28;20131;-64
2022/06/15 09:24:24;;;;;;;10.95;4.75;;;22.30;79.40;;;;;;5055940;28;20037;-64
2022/06/15 09:27:05;;;;;;;12.55;6.22;;;22.50;73.60;;;;;;5056117;28;20119;-64
2022/06/15 09:29:37;;;;;;;11.13;7.03;;;22.60;78.50;;;;;;5058264;28;20041;-65
2022/06/15 09:32:14;;;;;;;10.40;7.60;;;22.70;75.70;;;;;;5059811;28;20096;-64
2022/06/15 09:34:59;;;;;;;7.93;5.80;;;22.90;72.50;;;;;;5068642;28;20040;-64
2022/06/15 09:37:29;;;;;;;8.20;5.20;;;23.10;68.90;;;;;;5057219;28;20492;-64
2022/06/15 09:39:54;;;;;;;9.27;6.10;;;23.40;70.20;;;;;;5056361;28;20121;-64
2022/06/15 09:42:27;;;;;;;11.27;5.47;;;23.50;68.30;;;;;;5065986;28;20079;-64
2022/06/15 09:45:11;;;;;;;7.53;6.50;;;23.50;68.80;;;;;;5066629;28;20409;-65
2022/06/15 09:47:42;;;;;;;11.68;6.05;;;23.30;68.00;;;;;;5065835;28;20049;-65
2022/06/15 09:50:40;;;;;;;11.75;6.38;;;23.20;68.50;;;;;;5061221;28;20500;-64
2022/06/15 09:53:23;;;;;;;7.53;5.72;;;22.60;68.40;;;;;;5060997;28;20811;-64
2022/06/15 09:55:53;;;;;;;8.80;6.88;;;22.70;80.90;;;;;;5066922;28;20115;-69
2022/06/15 09:58:22;;;;;;;13.95;6.93;;;22.70;75.00;;;;;;5066726;28;20052;-69
2022/06/15 10:00:49;;;;;;;9.45;6.35;;;22.80;72.00;;;;;;5064590;28;20516;-69
2022/06/15 10:03:26;;;;;;;15.77;6.20;;;23.20;70.10;;;;;;5068243;28;20134;-70
2022/06/15 10:05:56;;;;;;;7.30;6.05;;;23.30;66.30;;;;;;5067521;28;20409;-69
2022/06/15 10:08:22;;;;;;;9.63;6.05;;;23.10;70.60;;;;;;5055601;28;20152;-69
2022/06/15 10:10:54;;;;;;;10.13;6.30;;;23.10;69.10;;;;;;5053189;28;20041;-69
2022/06/15 10:13:20;;;;;;;10.38;6.50;;;22.90;68.10;;;;;;5066639;28;20036;-69
2022/06/15 10:15:50;;;;;;;11.65;6.20;;;22.70;65.90;;;;;;5066895;28;20055;-69
2022/06/15 10:18:41;;;;;;;6.47;5.80;;;22.80;67.70;;;;;;5067458;28;20098;-70
2022/06/15 10:21:12;;;;;;;6.88;6.28;;;22.90;67.20;;;;;;5065451;28;20051;-70
2022/06/15 10:23:49;;;;;;;8.30;5.93;;;22.80;65.70;;;;;;5062062;28;20663;-69
2022/06/15 10:26:34;;;;;;;15.70;6.40;;;22.60;66.60;;;;;;5067288;28;20405;-69
2022/06/15 10:29:22;;;;;;;11.88;6.55;;;23.00;67.70;;;;;;5066465;28;20114;-70
2022/06/15 10:32:09;;;;;;;8.73;6.65;;;22.80;64.50;;;;;;5066041;28;20074;-70
2022/06/15 10:34:47;;;;;;;;;;;23.00;64.00;;;;;;5069796;28;20118;-70
2022/06/15 10:37:20;;;;;;;;;;;22.90;64.20;;;;;;5065105;28;19983;-70
2022/06/15 10:39:52;;;;;;;13.60;6.13;;;22.80;66.90;;;;;;5070282;28;19968;-70
2022/06/15 10:42:29;;;;;;;12.18;6.93;;;22.90;68.40;;;;;;5079616;28;20397;-70
2022/06/15 10:45:01;;;;;;;11.70;6.22;;;23.20;69.50;;;;;;5068921;28;20063;-70
2022/06/15 10:47:38;;;;;;;8.52;5.43;;;23.40;69.00;;;;;;5070023;28;20068;-70
2022/06/15 10:50:15;;;;;;;9.90;5.60;;;23.80;66.10;;;;;;5070354;28;20058;-70
2022/06/15 10:52:46;;;;;;;10.45;6.07;;;23.90;62.10;;;;;;5063636;28;20068;-70
2022/06/15 11:04:23;;;;;;;12.38;6.43;;;23.50;66.00;;;;;;5065136;28;20056;-70
2022/06/15 11:06:53;;;;;;;11.15;4.88;;;23.40;63.90;;;;;;5069118;28;20056;-70
2022/06/15 11:09:28;;;;;;;11.75;6.00;;;23.20;65.20;;;;;;5058141;28;20485;-71
2022/06/15 11:11:57;;;;;;;7.57;4.43;;;23.50;65.00;;;;;;5059093;28;20040;-70
2022/06/15 11:14:43;;;;;;;7.35;4.72;;;23.70;67.00;;;;;;5068956;28;20493;-71
2022/06/15 11:20:29;;;;;;;8.48;6.00;;;23.70;66.60;;;;;;5068496;28;20092;-72
2022/06/15 11:23:02;;;;;;;12.13;6.25;;;23.80;66.70;;;;;;5067803;28;20128;-71
2022/06/15 11:25:39;;;;;;;10.27;7.03;;;23.80;65.10;;;;;;5066327;28;20037;-71
2022/06/15 11:28:12;;;;;;;7.13;6.43;;;23.80;63.80;;;;;;5069231;28;20095;-70
2022/06/15 11:30:47;;;;;;;9.20;5.80;;;23.80;64.30;;;;;;5069440;28;20447;-70
2022/06/15 11:33:33;;;;;;;48.35;11.07;;;23.90;64.10;;;;;;5069793;28;20076;-71
2022/06/15 11:36:08;;;;;;;11.90;5.57;;;23.90;63.70;;;;;;5076158;28;20041;-71
2022/06/15 11:39:02;;;;;;;8.20;5.72;;;24.20;64.10;;;;;;5068120;28;20054;-70
2022/06/15 11:41:35;;;;;;;8.88;6.15;;;24.30;59.40;;;;;;5062514;28;20053;-71
2022/06/15 11:44:10;;;;;;;14.00;6.60;;;24.10;60.80;;;;;;5067500;28;20040;-70
2022/06/15 11:46:55;;;;;;;9.30;5.50;;;23.80;63.00;;;;;;5070765;28;20056;-70
2022/06/15 11:49:39;;;;;;;6.53;5.93;;;23.80;60.80;;;;;;5068390;28;20041;-70
2022/06/15 11:52:55;;;;;;;10.60;6.70;;;23.80;60.90;;;;;;5070538;28;20397;-70
2022/06/15 11:55:40;;;;;;;17.30;7.13;;;23.80;58.20;;;;;;5051354;28;20531;-66
2022/06/15 11:58:25;;;;;;;8.32;6.65;;;24.10;62.40;;;;;;5062307;28;20094;-69
2022/06/15 12:01:21;;;;;;;19.38;7.72;;;24.20;61.50;;;;;;5068958;28;20592;-70
2022/06/15 12:04:18;;;;;;;6.80;6.18;;;23.90;60.30;;;;;;5072944;28;20039;-68
2022/06/15 12:07:08;;;;;;;9.63;6.15;;;23.90;60.30;;;;;;5070152;28;20079;-70
2022/06/15 12:09:53;;;;;;;24.45;8.25;;;24.40;57.90;;;;;;5070055;28;20047;-69
2022/06/15 12:12:38;;;;;;;8.10;6.53;;;24.30;59.00;;;;;;5060508;28;20922;-68
2022/06/15 12:15:36;;;;;;;13.18;6.78;;;24.20;61.70;;;;;;5061371;28;20054;-68
2022/06/15 12:18:24;;;;;;;12.48;7.07;;;23.70;60.40;;;;;;5068403;28;20048;-67
2022/06/15 12:20:58;;;;;;;11.73;6.70;;;23.70;63.40;;;;;;5073227;28;20122;-68
2022/06/15 12:23:30;;;;;;;13.82;6.95;;;23.50;62.40;;;;;;5061690;28;20050;-69
2022/06/15 12:26:26;;;;;;;7.90;6.43;;;23.60;65.00;;;;;;5071203;28;20044;-68
2022/06/15 12:29:11;;;;;;;95.28;23.10;;;23.60;60.90;;;;;;5070275;28;20468;-67
2022/06/15 12:31:36;;;;;;;69.72;18.67;;;23.60;61.70;;;;;;5081575;28;20492;-67
2022/06/15 12:34:13;;;;;;;79.97;18.77;;;23.50;61.80;;;;;;5067455;28;20047;-67
2022/06/15 12:37:05;;;;;;;11.65;7.47;;;23.50;62.80;;;;;;5073151;28;20524;-68
2022/06/15 12:39:44;;;;;;;6.97;6.30;;;23.70;60.70;;;;;;5064728;28;20122;-68
2022/06/15 12:42:14;;;;;;;6.70;6.05;;;23.60;61.40;;;;;;5064161;28;20431;-69
2022/06/15 12:44:57;;;;;;;13.85;6.93;;;23.70;60.60;;;;;;5067337;28;20040;-70
2022/06/15 12:47:26;;;;;;;8.68;5.80;;;23.70;59.50;;;;;;5062579;28;20048;-69
2022/06/15 12:50:33;;;;;;;30.77;10.48;;;23.70;61.70;;;;;;5050651;28;20493;-69
2022/06/15 12:53:20;;;;;;;38.85;12.70;;;23.80;59.00;;;;;;5067819;28;20503;-69
2022/06/15 12:56:28;;;;;;;66.65;17.67;;;23.90;59.00;;;;;;5063840;28;20424;-69
2022/06/15 12:59:16;;;;;;;10.40;7.30;;;23.80;60.60;;;;;;5056129;28;20056;-69
2022/06/15 13:01:54;;;;;;;8.73;7.22;;;23.90;59.60;;;;;;5060228;28;20041;-69
2022/06/15 13:04:27;;;;;;;8.48;7.53;;;23.70;60.70;;;;;;5066948;28;20110;-69
2022/06/15 13:07:23;;;;;;;11.23;7.13;;;23.60;60.20;;;;;;5066138;28;20460;-69
2022/06/15 13:10:07;;;;;;;7.55;5.85;;;23.50;56.10;;;;;;5068479;28;20560;-68
2022/06/15 13:12:37;;;;;;;7.65;6.85;;;23.70;59.80;;;;;;5072080;28;20040;-69
2022/06/15 13:15:03;;;;;;;14.25;8.30;;;23.70;59.50;;;;;;5066485;28;20087;-68
2022/06/15 13:18:11;;;;;;;26.65;8.57;;;23.70;58.60;;;;;;5057095;28;20049;-69